createdAt,value
2019-02-12T00:00:25.487Z,0.00
2019-02-12T00:01:25.508Z,0.00
2019-02-12T00:02:25.533Z,0.00
2019-02-12T00:03:25.559Z,0.00
2019-02-12T00:04:25.582Z,0.00
2019-02-12T00:05:25.616Z,0.00
2019-02-12T00:06:25.635Z,0.00
2019-02-12T00:07:25.658Z,0.00
2019-02-12T00:08:25.683Z,0.00
2019-02-12T00:09:25.710Z,0.00
2019-02-12T00:10:25.733Z,0.00
2019-02-12T00:11:25.755Z,0.00
2019-02-12T00:12:25.781Z,0.00
2019-02-12T00:13:25.806Z,0.00
2019-02-12T00:14:25.831Z,0.00
2019-02-12T00:15:25.857Z,0.00
2019-02-12T00:16:25.880Z,0.00
2019-02-12T00:17:25.905Z,0.00
2019-02-12T00:18:25.929Z,0.00
2019-02-12T00:19:25.955Z,0.00
2019-02-12T00:20:25.979Z,0.00
2019-02-12T00:21:26.004Z,0.00
2019-02-12T00:22:26.030Z,0.00
2019-02-12T00:23:26.056Z,0.00
2019-02-12T00:24:26.080Z,0.00
2019-02-12T00:25:26.102Z,0.00
2019-02-12T00:26:26.134Z,0.00
2019-02-12T00:27:26.155Z,0.00
2019-02-12T00:28:26.178Z,0.00
2019-02-12T00:29:26.203Z,0.00
2019-02-12T00:30:26.229Z,0.00
2019-02-12T00:31:26.259Z,0.00
2019-02-12T00:32:26.278Z,0.00
2019-02-12T00:33:26.352Z,0.00
2019-02-12T00:34:26.329Z,0.00
2019-02-12T00:35:26.352Z,0.00
2019-02-12T00:36:26.377Z,0.00
2019-02-12T00:37:26.402Z,0.00
2019-02-12T00:38:26.430Z,0.00
2019-02-12T00:39:26.452Z,0.00
2019-02-12T00:40:26.477Z,0.00
2019-02-12T00:41:26.502Z,0.00
2019-02-12T00:42:26.527Z,0.00
2019-02-12T00:43:26.551Z,0.00
2019-02-12T00:44:26.626Z,0.00
2019-02-12T00:45:26.602Z,0.00
2019-02-12T00:46:26.626Z,0.00
2019-02-12T00:47:26.651Z,0.00
2019-02-12T00:48:26.676Z,0.00
2019-02-12T00:49:26.701Z,0.00
2019-02-12T00:50:26.726Z,0.00
2019-02-12T00:51:26.751Z,0.00
2019-02-12T00:52:26.775Z,0.00
2019-02-12T00:53:26.800Z,0.00
2019-02-12T00:54:26.827Z,0.00
2019-02-12T00:55:26.851Z,0.00
2019-02-12T00:56:26.877Z,0.00
2019-02-12T00:57:26.899Z,0.00
2019-02-12T00:58:26.925Z,0.00
2019-02-12T00:59:26.949Z,0.00
2019-02-12T01:00:26.976Z,0.00
2019-02-12T01:01:26.999Z,0.00
2019-02-12T01:02:27.026Z,0.00
2019-02-12T01:03:27.049Z,0.00
2019-02-12T01:04:27.073Z,0.00
2019-02-12T01:05:27.099Z,0.00
2019-02-12T01:06:27.123Z,0.00
2019-02-12T01:07:27.149Z,0.00
2019-02-12T01:08:27.175Z,0.00
2019-02-12T01:09:27.200Z,0.00
2019-02-12T01:10:27.227Z,0.00
2019-02-12T01:11:27.278Z,0.00
2019-02-12T01:12:27.272Z,0.00
2019-02-12T01:13:27.298Z,0.00
2019-02-12T01:14:27.322Z,0.00
2019-02-12T01:15:27.348Z,0.00
2019-02-12T01:16:27.373Z,0.00
2019-02-12T01:17:27.397Z,0.00
2019-02-12T01:18:27.424Z,0.00
2019-02-12T01:19:27.451Z,0.00
2019-02-12T01:20:27.479Z,0.00
2019-02-12T01:21:27.496Z,0.00
2019-02-12T01:22:27.522Z,0.00
2019-02-12T01:23:27.548Z,0.00
2019-02-12T01:24:27.573Z,0.00
2019-02-12T01:25:27.598Z,0.00
2019-02-12T01:26:27.622Z,0.00
2019-02-12T01:27:27.647Z,0.00
2019-02-12T01:28:27.672Z,0.00
2019-02-12T01:29:27.697Z,0.00
2019-02-12T01:30:27.722Z,0.00
2019-02-12T01:31:27.749Z,0.00
2019-02-12T01:32:27.813Z,0.00
2019-02-12T01:33:27.798Z,0.00
2019-02-12T01:34:27.822Z,0.00
2019-02-12T01:35:27.849Z,0.00
2019-02-12T01:36:27.873Z,0.00
2019-02-12T01:37:27.897Z,0.00
2019-02-12T01:38:27.922Z,0.00
2019-02-12T01:39:27.947Z,0.00
2019-02-12T01:40:27.972Z,0.00
2019-02-12T01:41:27.997Z,0.00
2019-02-12T01:42:28.023Z,0.00
2019-02-12T01:43:28.048Z,0.00
2019-02-12T01:44:28.073Z,0.00
2019-02-12T01:45:28.101Z,0.00
2019-02-12T01:46:28.122Z,0.00
2019-02-12T01:47:28.148Z,0.00
2019-02-12T01:48:28.172Z,0.00
2019-02-12T01:49:28.197Z,0.00
2019-02-12T01:50:28.222Z,0.00
2019-02-12T01:51:34.919Z,0.00
2019-02-12T01:52:28.272Z,0.00
2019-02-12T01:53:28.299Z,0.00
2019-02-12T01:54:28.322Z,0.00
2019-02-12T01:55:28.347Z,0.00
2019-02-12T01:56:28.372Z,0.00
2019-02-12T01:57:28.397Z,0.00
2019-02-12T01:58:28.423Z,0.00
2019-02-12T01:59:28.448Z,0.00
2019-02-12T02:00:28.475Z,0.00
2019-02-12T02:01:28.497Z,0.00
2019-02-12T02:02:28.526Z,0.00
2019-02-12T02:03:28.547Z,0.00
2019-02-12T02:04:28.572Z,0.00
2019-02-12T02:05:28.597Z,0.00
2019-02-12T02:06:28.628Z,0.00
2019-02-12T02:07:28.651Z,0.00
2019-02-12T02:08:28.673Z,0.00
2019-02-12T02:09:28.697Z,0.00
2019-02-12T02:10:28.726Z,0.00
2019-02-12T02:11:28.747Z,0.00
2019-02-12T02:12:28.772Z,0.00
2019-02-12T02:13:28.797Z,0.00
2019-02-12T02:14:28.823Z,0.00
2019-02-12T02:15:28.848Z,0.00
2019-02-12T02:16:28.872Z,0.00
2019-02-12T02:17:28.897Z,0.00
2019-02-12T02:18:28.924Z,0.00
2019-02-12T02:19:28.947Z,0.00
2019-02-12T02:20:28.972Z,0.00
2019-02-12T04:05:58.973Z,0.00
2019-02-12T04:06:58.997Z,0.00
2019-02-12T04:07:59.023Z,0.00
2019-02-12T04:08:59.087Z,0.00
2019-02-12T04:09:59.075Z,0.00
2019-02-12T04:10:59.096Z,0.00
2019-02-12T04:11:59.122Z,0.00
2019-02-12T04:12:59.146Z,0.00
2019-02-12T04:13:59.169Z,0.00
2019-02-12T04:14:59.195Z,0.00
2019-02-12T04:15:59.223Z,0.00
2019-02-12T04:16:59.244Z,0.00
2019-02-12T04:17:59.268Z,0.00
2019-02-12T04:18:59.291Z,0.00
2019-02-12T04:19:59.324Z,0.00
2019-02-12T04:20:59.348Z,0.00
2019-02-12T04:21:59.365Z,0.00
2019-02-12T04:22:59.389Z,0.00
2019-02-12T04:23:59.417Z,0.00
2019-02-12T04:24:59.439Z,0.00
2019-02-12T04:25:59.462Z,0.00
2019-02-12T04:26:59.487Z,0.00
2019-02-12T04:27:59.510Z,0.00
2019-02-12T04:28:59.536Z,0.00
2019-02-12T04:29:59.561Z,0.00
2019-02-12T04:30:59.584Z,0.00
2019-02-12T04:31:59.608Z,0.00
2019-02-12T04:32:59.641Z,0.00
2019-02-12T04:33:59.657Z,0.00
2019-02-12T04:34:59.684Z,0.00
2019-02-12T04:35:59.705Z,0.00
2019-02-12T04:36:59.731Z,0.00
2019-02-12T04:37:59.759Z,0.00
2019-02-12T04:38:59.781Z,0.00
2019-02-12T04:39:59.802Z,0.00
2019-02-12T04:40:59.829Z,0.00
2019-02-12T04:41:59.853Z,0.00
2019-02-12T04:42:59.876Z,0.00
2019-02-12T04:43:59.900Z,0.00
2019-02-12T04:44:59.925Z,0.00
2019-02-12T04:45:59.950Z,0.00
2019-02-12T04:46:59.974Z,0.00
2019-02-12T04:48:00.001Z,0.00
2019-02-12T04:49:00.022Z,0.00
2019-02-12T04:50:00.048Z,0.00
2019-02-12T04:51:00.072Z,0.00
2019-02-12T04:52:00.094Z,0.00
2019-02-12T04:53:00.119Z,0.00
2019-02-12T04:54:00.145Z,0.00
2019-02-12T04:55:00.393Z,0.00
2019-02-12T04:56:00.191Z,0.00
2019-02-12T04:57:00.216Z,0.00
2019-02-12T04:58:00.290Z,0.00
2019-02-12T04:59:00.266Z,0.00
2019-02-12T05:00:00.314Z,0.00
2019-02-12T05:01:00.365Z,0.00
2019-02-12T05:02:00.339Z,0.00
2019-02-12T05:03:00.364Z,0.00
2019-02-12T05:04:00.386Z,0.00
2019-02-12T05:05:00.411Z,0.00
2019-02-12T05:06:00.435Z,0.00
2019-02-12T05:07:00.458Z,0.00
2019-02-12T05:08:00.490Z,0.00
2019-02-12T05:09:00.507Z,0.00
2019-02-12T05:10:00.532Z,0.00
2019-02-12T05:11:00.556Z,0.00
2019-02-12T05:12:00.580Z,0.00
2019-02-12T05:13:00.604Z,0.00
2019-02-12T05:14:00.628Z,0.00
2019-02-12T05:15:00.655Z,0.00
2019-02-12T05:16:00.676Z,0.00
2019-02-12T05:17:00.701Z,0.00
2019-02-12T05:18:00.725Z,0.00
2019-02-12T05:19:00.751Z,0.00
2019-02-12T05:20:00.772Z,0.00
2019-02-12T05:21:00.797Z,0.00
2019-02-12T05:22:00.822Z,0.00
2019-02-12T05:23:00.847Z,0.00
2019-02-12T05:24:00.871Z,0.00
2019-02-12T05:25:00.895Z,0.00
2019-02-12T05:26:00.920Z,0.00
2019-02-12T05:27:00.946Z,0.00
2019-02-12T05:28:00.971Z,0.00
2019-02-12T05:29:00.993Z,0.00
2019-02-12T05:30:01.018Z,0.00
2019-02-12T05:31:01.042Z,0.00
2019-02-12T05:32:01.068Z,0.00
2019-02-12T05:33:01.089Z,0.00
2019-02-12T05:34:01.129Z,0.00
2019-02-12T05:35:01.142Z,0.00
2019-02-12T05:36:01.185Z,0.00
2019-02-12T05:37:01.188Z,0.00
2019-02-12T05:38:01.211Z,0.00
2019-02-12T05:39:01.235Z,0.00
2019-02-12T05:40:01.261Z,0.00
2019-02-12T05:41:01.286Z,0.00
2019-02-12T05:42:01.327Z,0.00
2019-02-12T05:43:01.333Z,0.00
2019-02-12T05:44:01.358Z,0.00
2019-02-12T05:45:01.414Z,0.00
2019-02-12T05:46:01.409Z,0.00
2019-02-12T05:47:01.431Z,0.00
2019-02-12T05:48:01.459Z,0.00
2019-02-12T05:49:01.484Z,0.00
2019-02-12T05:50:01.505Z,0.00
2019-02-12T05:51:01.530Z,0.00
2019-02-12T05:52:01.555Z,0.00
2019-02-12T05:53:01.580Z,0.00
2019-02-12T05:54:01.603Z,0.00
2019-02-12T05:55:01.626Z,0.00
2019-02-12T05:56:01.652Z,0.00
2019-02-12T05:57:01.675Z,0.00
2019-02-12T05:58:01.702Z,0.00
2019-02-12T05:59:01.724Z,0.00
2019-02-12T06:00:01.772Z,0.00
2019-02-12T06:01:01.773Z,0.00
2019-02-12T06:02:01.798Z,0.00
2019-02-12T06:03:01.829Z,0.00
2019-02-12T06:04:01.845Z,0.00
2019-02-12T06:05:01.871Z,0.00
2019-02-12T06:06:01.902Z,0.00
2019-02-12T06:07:01.921Z,0.00
2019-02-12T06:08:01.943Z,0.00
2019-02-12T06:09:01.968Z,0.00
2019-02-12T06:10:02.006Z,0.00
2019-02-12T06:11:02.017Z,0.00
2019-02-12T06:12:02.039Z,0.00
2019-02-12T06:13:02.070Z,0.00
2019-02-12T06:14:02.095Z,0.00
2019-02-12T06:15:02.119Z,4.00
2019-02-12T06:16:02.139Z,4.00
2019-02-12T06:17:02.164Z,4.00
2019-02-12T06:18:02.188Z,0.00
2019-02-12T06:19:02.212Z,4.00
2019-02-12T06:20:02.236Z,4.00
2019-02-12T06:21:02.292Z,4.00
2019-02-12T06:22:02.288Z,8.00
2019-02-12T06:23:04.124Z,8.00
2019-02-12T06:24:02.333Z,8.00
2019-02-12T06:25:02.358Z,12.00
2019-02-12T06:26:02.404Z,16.00
2019-02-12T06:27:02.409Z,16.00
2019-02-12T06:28:02.434Z,16.00
2019-02-12T06:29:02.516Z,20.00
2019-02-12T06:30:02.482Z,24.00
2019-02-12T06:31:02.508Z,28.00
2019-02-12T06:32:02.528Z,32.00
2019-02-12T06:33:07.489Z,32.00
2019-02-12T06:34:02.582Z,40.00
2019-02-12T06:35:02.602Z,40.00
2019-02-12T06:36:02.626Z,48.00
2019-02-12T06:37:02.651Z,52.00
2019-02-12T06:38:02.775Z,52.00
2019-02-12T06:39:02.700Z,60.00
2019-02-12T06:40:02.725Z,64.00
2019-02-12T06:41:02.793Z,72.00
2019-02-12T06:42:02.773Z,84.00
2019-02-12T06:43:02.797Z,92.00
2019-02-12T06:44:02.821Z,108.00
2019-02-12T06:45:02.846Z,112.00
2019-02-12T06:46:02.873Z,124.00
2019-02-12T06:47:02.898Z,132.00
2019-02-12T06:48:02.920Z,144.00
2019-02-12T06:49:02.943Z,156.00
2019-02-12T06:50:02.967Z,160.00
2019-02-12T06:51:02.994Z,172.00
2019-02-12T06:52:03.015Z,180.00
2019-02-12T06:53:12.109Z,192.00
2019-02-12T06:54:03.064Z,200.00
2019-02-12T06:55:03.107Z,212.00
2019-02-12T06:56:03.113Z,228.00
2019-02-12T06:57:03.136Z,244.00
2019-02-12T06:58:03.162Z,272.00
2019-02-12T06:59:03.186Z,304.00
2019-02-12T07:00:03.234Z,320.00
2019-02-12T07:01:03.236Z,336.00
2019-02-12T07:02:03.258Z,348.00
2019-02-12T07:03:03.287Z,376.00
2019-02-12T07:04:03.307Z,396.00
2019-02-12T07:05:03.334Z,408.00
2019-02-12T07:06:03.357Z,436.00
2019-02-12T07:07:03.381Z,480.00
2019-02-12T07:08:03.405Z,504.00
2019-02-12T07:09:03.433Z,512.00
2019-02-12T07:10:03.453Z,556.00
2019-02-12T07:11:03.479Z,612.00
2019-02-12T07:12:03.502Z,676.00
2019-02-12T07:13:03.526Z,740.00
2019-02-12T07:14:03.551Z,804.00
2019-02-12T07:15:03.574Z,836.00
2019-02-12T07:16:03.600Z,808.00
2019-02-12T07:17:03.622Z,836.00
2019-02-12T07:18:03.646Z,872.00
2019-02-12T07:19:03.675Z,892.00
2019-02-12T07:20:03.699Z,940.00
2019-02-12T07:21:03.722Z,988.00
2019-02-12T07:22:03.743Z,1060.00
2019-02-12T07:23:03.768Z,1076.00
2019-02-12T07:24:03.793Z,1092.00
2019-02-12T07:25:03.816Z,1132.00
2019-02-12T07:26:03.841Z,1152.00
2019-02-12T07:27:03.866Z,1212.00
2019-02-12T07:28:03.889Z,1280.00
2019-02-12T07:29:03.914Z,1276.00
2019-02-12T07:30:03.939Z,1236.00
2019-02-12T07:31:03.964Z,1172.00
2019-02-12T07:32:03.988Z,1100.00
2019-02-12T07:33:12.879Z,1060.00
2019-02-12T07:34:04.036Z,1020.00
2019-02-12T07:35:04.062Z,1020.00
2019-02-12T07:36:04.103Z,1088.00
2019-02-12T07:37:04.122Z,1224.00
2019-02-12T07:38:04.138Z,1428.00
2019-02-12T07:39:04.159Z,1584.00
2019-02-12T07:40:04.182Z,1648.00
2019-02-12T07:41:04.211Z,1672.00
2019-02-12T07:42:04.235Z,1660.00
2019-02-12T07:43:04.255Z,1664.00
2019-02-12T07:44:04.285Z,1800.00
2019-02-12T07:45:04.304Z,1928.00
2019-02-12T07:46:04.330Z,2040.00
2019-02-12T07:47:04.374Z,2136.00
2019-02-12T07:48:04.377Z,2268.00
2019-02-12T07:49:04.402Z,2396.00
2019-02-12T07:50:04.427Z,2480.00
2019-02-12T07:51:04.454Z,2588.00
2019-02-12T07:52:04.475Z,2656.00
2019-02-12T07:53:04.500Z,2792.00
2019-02-12T07:54:04.526Z,2900.00
2019-02-12T07:55:04.551Z,2964.00
2019-02-12T07:56:04.575Z,2992.00
2019-02-12T07:57:04.599Z,3052.00
2019-02-12T07:58:04.624Z,3144.00
2019-02-12T07:59:04.651Z,3264.00
2019-02-12T08:00:04.675Z,3260.00
2019-02-12T08:01:04.698Z,3372.00
2019-02-12T08:02:04.721Z,3504.00
2019-02-12T08:03:04.748Z,3736.00
2019-02-12T08:04:04.770Z,3864.00
2019-02-12T08:05:04.796Z,3832.00
2019-02-12T08:06:04.822Z,3780.00
2019-02-12T08:07:04.846Z,4068.00
2019-02-12T08:08:04.868Z,4256.00
2019-02-12T08:09:04.907Z,4284.00
2019-02-12T08:10:04.918Z,4388.00
2019-02-12T08:11:04.946Z,4836.00
2019-02-12T08:12:04.971Z,4576.00
2019-02-12T08:13:04.993Z,4724.00
2019-02-12T08:14:05.018Z,4684.00
2019-02-12T08:15:05.042Z,4312.00
2019-02-12T08:16:05.071Z,3760.00
2019-02-12T08:17:05.092Z,3644.00
2019-02-12T08:18:05.131Z,3752.00
2019-02-12T08:19:05.141Z,3656.00
2019-02-12T08:20:05.166Z,3732.00
2019-02-12T08:21:05.194Z,3992.00
2019-02-12T08:22:05.215Z,4180.00
2019-02-12T08:23:05.241Z,3748.00
2019-02-12T08:24:05.265Z,3536.00
2019-02-12T08:25:05.293Z,3432.00
2019-02-12T08:26:05.316Z,3536.00
2019-02-12T08:27:05.341Z,3644.00
2019-02-12T08:28:05.365Z,3788.00
2019-02-12T08:29:05.391Z,4020.00
2019-02-12T08:30:05.415Z,4372.00
2019-02-12T08:31:05.441Z,4520.00
2019-02-12T08:32:05.464Z,4656.00
2019-02-12T08:33:05.493Z,4860.00
2019-02-12T08:34:05.531Z,5152.00
2019-02-12T08:35:05.540Z,5496.00
2019-02-12T08:36:05.564Z,5584.00
2019-02-12T08:37:05.594Z,5444.00
2019-02-12T08:38:05.615Z,5304.00
2019-02-12T08:39:05.639Z,5428.00
2019-02-12T08:40:05.665Z,6104.00
2019-02-12T08:41:05.694Z,6776.00
2019-02-12T08:42:05.716Z,7096.00
2019-02-12T08:43:05.743Z,7204.00
2019-02-12T08:44:05.766Z,7344.00
2019-02-12T08:45:05.792Z,7536.00
2019-02-12T08:46:05.817Z,7648.00
2019-02-12T08:47:05.842Z,7964.00
2019-02-12T08:48:05.867Z,8848.00
2019-02-12T08:49:05.893Z,14912.00
2019-02-12T08:50:05.918Z,8292.00
2019-02-12T08:51:05.943Z,8168.00
2019-02-12T08:52:05.970Z,8580.00
2019-02-12T08:53:06.002Z,8776.00
2019-02-12T08:54:06.020Z,9348.00
2019-02-12T08:55:06.099Z,9124.00
2019-02-12T08:56:06.073Z,8836.00
2019-02-12T08:57:06.119Z,9364.00
2019-02-12T08:58:06.124Z,9664.00
2019-02-12T08:59:06.194Z,9804.00
2019-02-12T09:00:06.178Z,10116.00
2019-02-12T09:01:06.200Z,10988.00
2019-02-12T09:02:06.229Z,10604.00
2019-02-12T09:03:06.258Z,10260.00
2019-02-12T09:04:06.279Z,10712.00
2019-02-12T09:05:06.359Z,11032.00
2019-02-12T09:06:06.335Z,11352.00
2019-02-12T09:07:06.380Z,11624.00
2019-02-12T09:08:06.386Z,12308.00
2019-02-12T09:09:06.412Z,13464.00
2019-02-12T09:10:06.446Z,14268.00
2019-02-12T09:11:06.469Z,14308.00
2019-02-12T09:12:06.493Z,15100.00
2019-02-12T09:13:06.519Z,20096.00
2019-02-12T09:14:06.545Z,16352.00
2019-02-12T09:15:06.574Z,27008.00
2019-02-12T09:16:06.600Z,19584.00
2019-02-12T09:17:06.627Z,15028.00
2019-02-12T09:18:06.668Z,14472.00
2019-02-12T09:19:06.732Z,11308.00
2019-02-12T09:20:06.709Z,10340.00
2019-02-12T09:21:06.744Z,9972.00
2019-02-12T09:22:06.766Z,10016.00
2019-02-12T09:23:06.803Z,10636.00
2019-02-12T09:24:06.820Z,11532.00
2019-02-12T09:25:06.852Z,12176.00
2019-02-12T09:26:06.876Z,13416.00
2019-02-12T09:27:06.910Z,15408.00
2019-02-12T09:28:06.931Z,24512.00
2019-02-12T09:29:06.963Z,15504.00
2019-02-12T09:30:06.989Z,12432.00
2019-02-12T09:31:07.018Z,12396.00
2019-02-12T09:32:07.044Z,13052.00
2019-02-12T09:33:07.084Z,12708.00
2019-02-12T09:34:07.102Z,12256.00
2019-02-12T09:35:07.130Z,12180.00
2019-02-12T09:36:07.157Z,12892.00
2019-02-12T09:37:07.186Z,14576.00
2019-02-12T09:38:07.216Z,18624.00
2019-02-12T09:39:07.243Z,12116.00
2019-02-12T09:40:07.269Z,11596.00
2019-02-12T09:41:07.349Z,11284.00
2019-02-12T09:42:07.331Z,11288.00
2019-02-12T09:43:07.358Z,10752.00
2019-02-12T09:44:07.386Z,10384.00
2019-02-12T09:45:07.419Z,10364.00
2019-02-12T09:46:07.445Z,10776.00
2019-02-12T09:47:07.475Z,11448.00
2019-02-12T09:48:07.499Z,12400.00
2019-02-12T09:49:07.528Z,14176.00
2019-02-12T09:50:07.556Z,14960.00
2019-02-12T09:51:07.584Z,14872.00
2019-02-12T09:52:07.677Z,13932.00
2019-02-12T09:53:07.641Z,13424.00
2019-02-12T09:54:09.027Z,14464.00
2019-02-12T09:55:07.707Z,15372.00
2019-02-12T09:56:07.777Z,15280.00
2019-02-12T09:57:07.756Z,15544.00
2019-02-12T09:58:07.819Z,14596.00
2019-02-12T09:59:07.853Z,14332.00
2019-02-12T10:00:08.272Z,14252.00
2019-02-12T10:01:07.872Z,16416.00
2019-02-12T10:02:07.901Z,14396.00
2019-02-12T10:03:07.962Z,16864.00
2019-02-12T10:04:07.960Z,17376.00
2019-02-12T10:05:07.991Z,17568.00
2019-02-12T10:06:08.020Z,18496.00
2019-02-12T10:07:08.047Z,19232.00
2019-02-12T10:08:08.144Z,20128.00
2019-02-12T10:09:08.178Z,23808.00
2019-02-12T10:10:08.201Z,28320.00
2019-02-12T10:11:08.268Z,35072.00
2019-02-12T10:12:08.279Z,29792.00
2019-02-12T10:13:08.239Z,36000.00
2019-02-12T10:14:08.254Z,27904.00
2019-02-12T10:15:08.287Z,46464.00
2019-02-12T10:16:08.315Z,48384.00
2019-02-12T10:17:08.345Z,28064.00
2019-02-12T10:18:08.376Z,28192.00
2019-02-12T10:19:08.406Z,22848.00
2019-02-12T10:20:08.461Z,21344.00
2019-02-12T10:21:08.470Z,20896.00
2019-02-12T10:22:08.502Z,19040.00
2019-02-12T10:23:08.534Z,18432.00
2019-02-12T10:24:19.051Z,20384.00
2019-02-12T10:25:08.620Z,20640.00
2019-02-12T10:26:08.876Z,19680.00
2019-02-12T10:27:08.657Z,20096.00
2019-02-12T10:28:08.929Z,19904.00
2019-02-12T10:29:08.749Z,19776.00
2019-02-12T10:30:08.773Z,18944.00
2019-02-12T10:31:08.782Z,18272.00
2019-02-12T10:32:09.129Z,16524.00
2019-02-12T10:33:08.845Z,16264.00
2019-02-12T10:34:08.878Z,20992.00
2019-02-12T10:35:08.907Z,38720.00
2019-02-12T10:36:08.936Z,45920.00
2019-02-12T10:37:08.969Z,21056.00
2019-02-12T10:38:09.001Z,19232.00
2019-02-12T10:39:09.032Z,18848.00
2019-02-12T10:40:09.066Z,17856.00
2019-02-12T10:41:09.094Z,17120.00
2019-02-12T10:42:09.125Z,16896.00
2019-02-12T10:43:09.160Z,16308.00
2019-02-12T10:44:09.185Z,16032.00
2019-02-12T10:45:09.219Z,18112.00
2019-02-12T10:46:09.249Z,21184.00
2019-02-12T10:47:09.281Z,21440.00
2019-02-12T10:48:09.313Z,21952.00
2019-02-12T10:49:09.345Z,20096.00
2019-02-12T10:50:09.373Z,18272.00
2019-02-12T10:51:09.405Z,17536.00
2019-02-12T10:52:09.446Z,17984.00
2019-02-12T10:53:09.470Z,20096.00
2019-02-12T10:54:11.985Z,21312.00
2019-02-12T10:55:09.531Z,22112.00
2019-02-12T10:56:09.560Z,20256.00
2019-02-12T10:57:09.588Z,21856.00
2019-02-12T10:58:09.625Z,17600.00
2019-02-12T10:59:09.655Z,16004.00
2019-02-12T11:00:09.682Z,14684.00
2019-02-12T11:01:09.712Z,13796.00
2019-02-12T11:02:09.745Z,12444.00
2019-02-12T11:03:09.776Z,11820.00
2019-02-12T11:04:09.809Z,12164.00
2019-02-12T11:05:09.868Z,12520.00
2019-02-12T11:06:09.867Z,13256.00
2019-02-12T11:07:09.897Z,15400.00
2019-02-12T11:08:09.927Z,16148.00
2019-02-12T11:09:09.958Z,22208.00
2019-02-12T11:10:09.999Z,16896.00
2019-02-12T11:11:10.018Z,18496.00
2019-02-12T11:12:10.049Z,23808.00
2019-02-12T11:13:10.079Z,28608.00
2019-02-12T11:14:10.111Z,24192.00
2019-02-12T11:15:10.159Z,15620.00
2019-02-12T11:16:10.170Z,15640.00
2019-02-12T11:17:10.201Z,16056.00
2019-02-12T11:18:10.231Z,15772.00
2019-02-12T11:19:10.260Z,17792.00
2019-02-12T11:20:10.295Z,17920.00
2019-02-12T11:21:12.150Z,16896.00
2019-02-12T11:22:10.355Z,17344.00
2019-02-12T11:23:11.044Z,17344.00
2019-02-12T11:24:10.419Z,20320.00
2019-02-12T11:25:10.450Z,25248.00
2019-02-12T11:26:10.475Z,23008.00
2019-02-12T11:27:10.507Z,29216.00
2019-02-12T11:28:11.840Z,24256.00
2019-02-12T11:29:10.567Z,18880.00
2019-02-12T11:30:10.597Z,21472.00
2019-02-12T11:31:10.627Z,25568.00
2019-02-12T11:32:10.670Z,26080.00
2019-02-12T11:33:10.691Z,19680.00
2019-02-12T11:34:10.722Z,23904.00
2019-02-12T11:35:10.752Z,24192.00
2019-02-12T11:36:10.784Z,22592.00
2019-02-12T11:37:10.816Z,27008.00
2019-02-12T11:38:10.846Z,28160.00
2019-02-12T11:39:10.877Z,31104.00
2019-02-12T11:40:10.907Z,31488.00
2019-02-12T11:41:10.940Z,31968.00
2019-02-12T11:42:10.969Z,33152.00
2019-02-12T11:43:11.001Z,34112.00
2019-02-12T11:44:11.032Z,34048.00
2019-02-12T11:45:11.064Z,33216.00
2019-02-12T11:46:11.096Z,31488.00
2019-02-12T11:47:11.128Z,28256.00
2019-02-12T11:48:11.159Z,27328.00
2019-02-12T11:49:11.191Z,25536.00
2019-02-12T11:50:11.223Z,23712.00
2019-02-12T11:51:11.281Z,22144.00
2019-02-12T11:52:11.287Z,21216.00
2019-02-12T11:53:11.368Z,20736.00
2019-02-12T11:54:11.351Z,20416.00
2019-02-12T11:55:11.385Z,20352.00
2019-02-12T11:56:11.414Z,20192.00
2019-02-12T11:57:11.447Z,20032.00
2019-02-12T11:58:11.479Z,20032.00
2019-02-12T11:59:11.512Z,20096.00
2019-02-12T12:00:11.542Z,20064.00
2019-02-12T12:01:11.574Z,20192.00
2019-02-12T12:02:11.607Z,20512.00
2019-02-12T12:03:11.641Z,20832.00
2019-02-12T12:04:11.671Z,21408.00
2019-02-12T12:05:11.701Z,21760.00
2019-02-12T12:06:11.736Z,22656.00
2019-02-12T12:07:11.767Z,22944.00
2019-02-12T12:08:11.797Z,23072.00
2019-02-12T12:09:11.828Z,23424.00
2019-02-12T12:10:11.861Z,23936.00
2019-02-12T12:11:11.892Z,24800.00
2019-02-12T12:12:11.923Z,25280.00
2019-02-12T12:13:11.955Z,26144.00
2019-02-12T12:14:11.986Z,29120.00
2019-02-12T12:15:12.018Z,35328.00
2019-02-12T12:16:12.049Z,30112.00
2019-02-12T12:17:12.082Z,31200.00
2019-02-12T12:18:12.114Z,30720.00
2019-02-12T12:19:12.147Z,32448.00
2019-02-12T12:20:12.180Z,30560.00
2019-02-12T12:21:12.237Z,28864.00
2019-02-12T12:22:12.245Z,27328.00
2019-02-12T12:23:13.727Z,25472.00
2019-02-12T12:24:12.358Z,23776.00
2019-02-12T12:25:12.339Z,21760.00
2019-02-12T12:26:12.374Z,21440.00
2019-02-12T12:27:12.405Z,19424.00
2019-02-12T12:28:12.437Z,19776.00
2019-02-12T12:29:12.471Z,21280.00
2019-02-12T12:30:12.502Z,23104.00
2019-02-12T12:31:12.535Z,29088.00
2019-02-12T12:32:12.566Z,33280.00
2019-02-12T12:33:12.600Z,35840.00
2019-02-12T12:34:12.632Z,26400.00
2019-02-12T12:35:12.667Z,23168.00
2019-02-12T12:36:12.698Z,21472.00
2019-02-12T12:37:12.733Z,25344.00
2019-02-12T12:38:12.762Z,17760.00
2019-02-12T12:39:12.797Z,17472.00
2019-02-12T12:40:12.828Z,18080.00
2019-02-12T12:41:12.861Z,19552.00
2019-02-12T12:42:12.896Z,20992.00
2019-02-12T12:43:12.931Z,22880.00
2019-02-12T12:44:12.957Z,24192.00
2019-02-12T12:45:12.991Z,25440.00
2019-02-12T12:46:13.023Z,26656.00
2019-02-12T12:47:13.182Z,31872.00
2019-02-12T12:48:13.092Z,33632.00
2019-02-12T12:49:13.120Z,30336.00
2019-02-12T12:50:13.161Z,26240.00
2019-02-12T12:51:13.186Z,28640.00
2019-02-12T12:52:13.216Z,55104.00
2019-02-12T12:53:13.254Z,56192.00
2019-02-12T12:54:13.290Z,55296.00
2019-02-12T12:55:13.321Z,52320.00
2019-02-12T12:56:13.348Z,36128.00
2019-02-12T12:57:13.383Z,33760.00
2019-02-12T12:58:13.416Z,68960.00
2019-02-12T12:59:13.450Z,78720.00
2019-02-12T13:00:13.484Z,91456.00
2019-02-12T13:01:13.557Z,99424.00
2019-02-12T13:02:13.603Z,102496.00
2019-02-12T13:03:13.630Z,103136.00
2019-02-12T13:04:13.622Z,86496.00
2019-02-12T13:05:13.660Z,29440.00
2019-02-12T13:06:13.703Z,88480.00
2019-02-12T13:07:13.733Z,84992.00
2019-02-12T13:08:13.769Z,82848.00
2019-02-12T13:09:13.807Z,85440.00
2019-02-12T13:10:13.848Z,69440.00
2019-02-12T13:11:13.882Z,67744.00
2019-02-12T13:12:13.921Z,78272.00
2019-02-12T13:13:13.958Z,74976.00
2019-02-12T13:14:14.000Z,72768.00
2019-02-12T13:15:14.037Z,60320.00
2019-02-12T13:16:14.079Z,28480.00
2019-02-12T13:17:14.116Z,28480.00
2019-02-12T13:18:14.155Z,15396.00
2019-02-12T13:19:14.192Z,13628.00
2019-02-12T13:20:14.231Z,18880.00
2019-02-12T13:21:14.271Z,14664.00
2019-02-12T13:22:14.312Z,18624.00
2019-02-12T13:23:14.348Z,21792.00
2019-02-12T13:24:14.386Z,14656.00
2019-02-12T13:25:14.423Z,18080.00
2019-02-12T13:26:14.463Z,17088.00
2019-02-12T13:27:14.501Z,39296.00
2019-02-12T13:28:14.535Z,22272.00
2019-02-12T13:29:14.573Z,25824.00
2019-02-12T13:30:14.609Z,37856.00
2019-02-12T13:31:14.645Z,18656.00
2019-02-12T13:32:14.681Z,19328.00
2019-02-12T13:33:14.717Z,17024.00
2019-02-12T13:34:14.754Z,16608.00
2019-02-12T13:35:14.788Z,16640.00
2019-02-12T13:36:14.824Z,16640.00
2019-02-12T13:37:14.863Z,16832.00
2019-02-12T13:38:14.896Z,18368.00
2019-02-12T13:39:14.931Z,21024.00
2019-02-12T13:40:14.966Z,21888.00
2019-02-12T13:41:14.998Z,17088.00
2019-02-12T13:42:15.037Z,16800.00
2019-02-12T13:43:15.078Z,16928.00
2019-02-12T13:44:15.103Z,16704.00
2019-02-12T13:45:15.139Z,16212.00
2019-02-12T13:46:15.172Z,16148.00
2019-02-12T13:47:15.207Z,16124.00
2019-02-12T13:48:15.239Z,15984.00
2019-02-12T13:49:15.274Z,15992.00
2019-02-12T13:50:15.308Z,16768.00
2019-02-12T13:51:15.342Z,17184.00
2019-02-12T13:52:15.375Z,17440.00
2019-02-12T13:53:15.413Z,17376.00
2019-02-12T13:54:15.443Z,17280.00
2019-02-12T13:55:17.668Z,18304.00
2019-02-12T13:56:15.509Z,17472.00
2019-02-12T13:57:15.542Z,17568.00
2019-02-12T13:58:15.582Z,16928.00
2019-02-12T13:59:15.610Z,17024.00
2019-02-12T14:00:15.644Z,16736.00
2019-02-12T14:01:15.673Z,16736.00
2019-02-12T14:02:15.708Z,16576.00
2019-02-12T14:03:22.234Z,16576.00
2019-02-12T14:04:15.786Z,16704.00
2019-02-12T14:05:15.865Z,16896.00
2019-02-12T14:06:15.841Z,17504.00
2019-02-12T14:07:15.869Z,16992.00
2019-02-12T14:08:15.901Z,16672.00
2019-02-12T14:09:15.964Z,16064.00